sensor_id;sensor_type;location;lat;lon;timestamp;pressure;altitude;pressure_sealevel;temperature;humidity
8320;BME280;4197;42.130;24.746;2023-05-02T00:00:41;99975.66;;;11.24;100.00
8320;BME280;4197;42.130;24.746;2023-05-02T00:03:11;99979.06;;;11.21;100.00
8320;BME280;4197;42.130;24.746;2023-05-02T00:05:41;99975.66;;;11.24;100.00
8320;BME280;4197;42.130;24.746;2023-05-02T00:08:10;99977.94;;;11.22;100.00
8320;BME280;4197;42.130;24.746;2023-05-02T00:10:38;99986.06;;;11.22;100.00
8320;BME280;4197;42.130;24.746;2023-05-02T00:13:07;99983.34;;;11.22;100.00
8320;BME280;4197;42.130;24.746;2023-05-02T00:15:35;99989.03;;;11.16;100.00
8320;BME280;4197;42.130;24.746;2023-05-02T00:18:03;99985.38;;;11.25;100.00
8320;BME280;4197;42.130;24.746;2023-05-02T00:20:32;99989.47;;;11.19;100.00
8320;BME280;4197;42.130;24.746;2023-05-02T00:23:02;99989.38;;;11.15;100.00
8320;BME280;4197;42.130;24.746;2023-05-02T00:25:30;99990.41;;;11.10;100.00
8320;BME280;4197;42.130;24.746;2023-05-02T00:27:58;99988.94;;;11.13;100.00
8320;BME280;4197;42.130;24.746;2023-05-02T00:30:26;99989.38;;;11.15;100.00
8320;BME280;4197;42.130;24.746;2023-05-02T00:32:54;99997.31;;;11.08;100.00
8320;BME280;4197;42.130;24.746;2023-05-02T00:35:23;99995.19;;;11.01;100.00
8320;BME280;4197;42.130;24.746;2023-05-02T00:37:52;99995.19;;;11.01;100.00
8320;BME280;4197;42.130;24.746;2023-05-02T00:40:22;100003.56;;;10.96;100.00
8320;BME280;4197;42.130;24.746;2023-05-02T00:42:50;100006.13;;;11.05;100.00
8320;BME280;4197;42.130;24.746;2023-05-02T00:45:18;100006.72;;;10.98;100.00
8320;BME280;4197;42.130;24.746;2023-05-02T00:47:46;100010.47;;;10.93;100.00
8320;BME280;4197;42.130;24.746;2023-05-02T00:50:16;100005.63;;;10.87;100.00
8320;BME280;4197;42.130;24.746;2023-05-02T00:52:44;100013.53;;;10.80;100.00
8320;BME280;4197;42.130;24.746;2023-05-02T00:55:12;100017.06;;;10.68;100.00
8320;BME280;4197;42.130;24.746;2023-05-02T00:57:43;100014.91;;;10.61;100.00
8320;BME280;4197;42.130;24.746;2023-05-02T01:00:12;100007.44;;;10.58;100.00
8320;BME280;4197;42.130;24.746;2023-05-02T01:02:46;100006.00;;;10.48;100.00
8320;BME280;4197;42.130;24.746;2023-05-02T01:05:18;100011.75;;;10.47;100.00
8320;BME280;4197;42.130;24.746;2023-05-02T01:08:00;100013.91;;;10.54;100.00
8320;BME280;4197;42.130;24.746;2023-05-02T01:10:38;100010.72;;;10.52;100.00
8320;BME280;4197;42.130;24.746;2023-05-02T01:13:16;100010.41;;;10.41;100.00
8320;BME280;4197;42.130;24.746;2023-05-02T01:15:46;100013.69;;;10.34;100.00
8320;BME280;4197;42.130;24.746;2023-05-02T01:18:17;100013.56;;;10.43;100.00
8320;BME280;4197;42.130;24.746;2023-05-02T01:20:52;100018.31;;;10.34;100.00
8320;BME280;4197;42.130;24.746;2023-05-02T01:23:31;100026.84;;;10.23;100.00
8320;BME280;4197;42.130;24.746;2023-05-02T01:26:12;100016.69;;;10.20;100.00
8320;BME280;4197;42.130;24.746;2023-05-02T01:28:58;100030.66;;;10.22;100.00
8320;BME280;4197;42.130;24.746;2023-05-02T01:31:30;100021.63;;;10.18;100.00
8320;BME280;4197;42.130;24.746;2023-05-02T01:34:00;100017.78;;;10.19;100.00
8320;BME280;4197;42.130;24.746;2023-05-02T01:36:30;100019.72;;;10.19;100.00
8320;BME280;4197;42.130;24.746;2023-05-02T01:39:00;100014.69;;;10.30;100.00
8320;BME280;4197;42.130;24.746;2023-05-02T01:41:30;100017.56;;;10.24;100.00
8320;BME280;4197;42.130;24.746;2023-05-02T01:44:02;100017.47;;;10.21;100.00
8320;BME280;4197;42.130;24.746;2023-05-02T01:46:33;100008.56;;;10.33;100.00
8320;BME280;4197;42.130;24.746;2023-05-02T01:49:06;100018.53;;;10.29;100.00
8320;BME280;4197;42.130;24.746;2023-05-02T01:51:37;100022.44;;;10.19;100.00
8320;BME280;4197;42.130;24.746;2023-05-02T01:54:07;100029.19;;;10.13;100.00
8320;BME280;4197;42.130;24.746;2023-05-02T01:56:38;100025.34;;;10.01;100.00
8320;BME280;4197;42.130;24.746;2023-05-02T01:59:11;100022.72;;;9.93;100.00
8320;BME280;4197;42.130;24.746;2023-05-02T02:01:40;100015.22;;;9.77;100.00
8320;BME280;4197;42.130;24.746;2023-05-02T02:04:12;100026.25;;;9.72;100.00
8320;BME280;4197;42.130;24.746;2023-05-02T02:06:45;100024.56;;;9.68;100.00
8320;BME280;4197;42.130;24.746;2023-05-02T02:09:15;100026.50;;;9.67;100.00
8320;BME280;4197;42.130;24.746;2023-05-02T02:11:48;100019.28;;;9.71;100.00
8320;BME280;4197;42.130;24.746;2023-05-02T02:14:24;100023.81;;;9.79;100.00
8320;BME280;4197;42.130;24.746;2023-05-02T02:16:54;100019.19;;;9.80;100.00
8320;BME280;4197;42.130;24.746;2023-05-02T02:19:23;100019.94;;;9.68;100.00
8320;BME280;4197;42.130;24.746;2023-05-02T02:21:53;100027.69;;;9.57;100.00
8320;BME280;4197;42.130;24.746;2023-05-02T02:24:23;100022.81;;;9.51;100.00
8320;BME280;4197;42.130;24.746;2023-05-02T02:26:51;100027.00;;;9.48;100.00
8320;BME280;4197;42.130;24.746;2023-05-02T02:29:21;100019.38;;;9.42;100.00
8320;BME280;4197;42.130;24.746;2023-05-02T02:31:49;100024.69;;;9.38;100.00
8320;BME280;4197;42.130;24.746;2023-05-02T02:34:19;100032.22;;;9.32;100.00
8320;BME280;4197;42.130;24.746;2023-05-02T02:36:53;100027.19;;;9.22;100.00
8320;BME280;4197;42.130;24.746;2023-05-02T02:39:32;100029.63;;;9.15;100.00
8320;BME280;4197;42.130;24.746;2023-05-02T02:42:09;100026.66;;;9.08;100.00
8320;BME280;4197;42.130;24.746;2023-05-02T02:44:50;100029.13;;;9.01;100.00
8320;BME280;4197;42.130;24.746;2023-05-02T02:47:23;100031.19;;;8.95;100.00
8320;BME280;4197;42.130;24.746;2023-05-02T02:50:08;100034.44;;;8.88;100.00
8320;BME280;4197;42.130;24.746;2023-05-02T02:52:49;100040.31;;;8.90;100.00
8320;BME280;4197;42.130;24.746;2023-05-02T02:55:33;100032.00;;;8.96;100.00
8320;BME280;4197;42.130;24.746;2023-05-02T02:58:17;100033.75;;;8.91;100.00
8320;BME280;4197;42.130;24.746;2023-05-02T03:00:47;100039.34;;;8.86;100.00
8320;BME280;4197;42.130;24.746;2023-05-02T03:03:16;100051.38;;;8.77;100.00
8320;BME280;4197;42.130;24.746;2023-05-02T03:05:46;100055.69;;;8.69;100.00
8320;BME280;4197;42.130;24.746;2023-05-02T03:08:18;100049.69;;;8.63;100.00
8320;BME280;4197;42.130;24.746;2023-05-02T03:10:46;100047.16;;;8.58;100.00
8320;BME280;4197;42.130;24.746;2023-05-02T03:13:14;100050.09;;;8.74;100.00
8320;BME280;4197;42.130;24.746;2023-05-02T03:16:11;100048.91;;;8.84;100.00
8320;BME280;4197;42.130;24.746;2023-05-02T03:18:50;100051.44;;;8.89;100.00
8320;BME280;4197;42.130;24.746;2023-05-02T03:21:18;100052.38;;;8.93;100.00
8320;BME280;4197;42.130;24.746;2023-05-02T03:23:46;100061.34;;;9.06;100.00
8320;BME280;4197;42.130;24.746;2023-05-02T03:26:15;100059.72;;;9.13;100.00
8320;BME280;4197;42.130;24.746;2023-05-02T03:28:43;100057.59;;;9.19;100.00
8320;BME280;4197;42.130;24.746;2023-05-02T03:31:14;100067.38;;;9.32;100.00
8320;BME280;4197;42.130;24.746;2023-05-02T03:33:42;100062.97;;;9.28;100.00
8320;BME280;4197;42.130;24.746;2023-05-02T03:36:11;100069.44;;;9.35;100.00
8320;BME280;4197;42.130;24.746;2023-05-02T03:38:40;100084.53;;;9.36;100.00
8320;BME280;4197;42.130;24.746;2023-05-02T03:41:08;100074.84;;;9.35;100.00
8320;BME280;4197;42.130;24.746;2023-05-02T03:43:36;100083.56;;;9.41;100.00
8320;BME280;4197;42.130;24.746;2023-05-02T03:46:07;100086.63;;;9.40;100.00
8320;BME280;4197;42.130;24.746;2023-05-02T03:48:39;100087.06;;;9.42;100.00
8320;BME280;4197;42.130;24.746;2023-05-02T03:51:07;100090.69;;;9.46;100.00
8320;BME280;4197;42.130;24.746;2023-05-02T03:53:35;100090.34;;;9.47;100.00
8320;BME280;4197;42.130;24.746;2023-05-02T03:56:05;100099.53;;;9.55;100.00
8320;BME280;4197;42.130;24.746;2023-05-02T03:58:33;100099.47;;;9.64;100.00
8320;BME280;4197;42.130;24.746;2023-05-02T04:01:03;100096.38;;;9.74;100.00
8320;BME280;4197;42.130;24.746;2023-05-02T04:03:31;100092.69;;;9.91;100.00
8320;BME280;4197;42.130;24.746;2023-05-02T04:06:02;100107.78;;;10.13;100.00
8320;BME280;4197;42.130;24.746;2023-05-02T04:08:30;100109.41;;;10.26;100.00
8320;BME280;4197;42.130;24.746;2023-05-02T04:10:58;100106.78;;;10.51;100.00
8320;BME280;4197;42.130;24.746;2023-05-02T04:13:26;100110.16;;;10.72;100.00
8320;BME280;4197;42.130;24.746;2023-05-02T04:15:55;100119.13;;;10.85;100.00
8320;BME280;4197;42.130;24.746;2023-05-02T04:18:24;100124.31;;;10.90;100.00
8320;BME280;4197;42.130;24.746;2023-05-02T04:20:53;100117.63;;;11.00;100.00
8320;BME280;4197;42.130;24.746;2023-05-02T04:23:23;100116.63;;;11.04;100.00
8320;BME280;4197;42.130;24.746;2023-05-02T04:25:52;100126.44;;;11.21;100.00
8320;BME280;4197;42.130;24.746;2023-05-02T04:28:22;100129.59;;;11.35;100.00
8320;BME280;4197;42.130;24.746;2023-05-02T04:30:52;100125.00;;;11.64;100.00
8320;BME280;4197;42.130;24.746;2023-05-02T04:33:20;100134.81;;;11.81;100.00
8320;BME280;4197;42.130;24.746;2023-05-02T04:35:49;100134.25;;;11.88;100.00
8320;BME280;4197;42.130;24.746;2023-05-02T04:38:18;100129.34;;;11.93;100.00
8320;BME280;4197;42.130;24.746;2023-05-02T04:43:35;100132.28;;;12.00;100.00
8320;BME280;4197;42.130;24.746;2023-05-02T04:46:03;100122.13;;;12.13;100.00
8320;BME280;4197;42.130;24.746;2023-05-02T04:48:31;100120.19;;;12.14;100.00
8320;BME280;4197;42.130;24.746;2023-05-02T04:51:00;100124.13;;;12.00;100.00
8320;BME280;4197;42.130;24.746;2023-05-02T04:53:28;100128.06;;;12.03;100.00
8320;BME280;4197;42.130;24.746;2023-05-02T04:55:59;100118.28;;;11.86;100.00
8320;BME280;4197;42.130;24.746;2023-05-02T04:58:27;100121.78;;;11.87;100.00
8320;BME280;4197;42.130;24.746;2023-05-02T05:00:56;100128.16;;;12.07;100.00
8320;BME280;4197;42.130;24.746;2023-05-02T05:03:25;100132.53;;;12.39;100.00
8320;BME280;4197;42.130;24.746;2023-05-02T05:05:55;100136.97;;;12.32;100.00
8320;BME280;4197;42.130;24.746;2023-05-02T05:08:24;100142.41;;;12.32;100.00
8320;BME280;4197;42.130;24.746;2023-05-02T05:10:53;100136.09;;;12.27;100.00
8320;BME280;4197;42.130;24.746;2023-05-02T05:13:23;100127.34;;;12.34;100.00
8320;BME280;4197;42.130;24.746;2023-05-02T05:15:51;100137.34;;;12.46;100.00
8320;BME280;4197;42.130;24.746;2023-05-02T05:18:20;100132.53;;;12.71;100.00
8320;BME280;4197;42.130;24.746;2023-05-02T05:20:49;100135.34;;;12.90;100.00
8320;BME280;4197;42.130;24.746;2023-05-02T05:23:18;100140.84;;;13.10;100.00
8320;BME280;4197;42.130;24.746;2023-05-02T05:25:46;100141.88;;;13.37;100.00
8320;BME280;4197;42.130;24.746;2023-05-02T05:28:14;100142.31;;;13.23;100.00
8320;BME280;4197;42.130;24.746;2023-05-02T05:30:47;100148.69;;;13.11;100.00
8320;BME280;4197;42.130;24.746;2023-05-02T05:33:15;100152.63;;;13.14;100.00
8320;BME280;4197;42.130;24.746;2023-05-02T05:35:43;100143.03;;;13.20;100.00
8320;BME280;4197;42.130;24.746;2023-05-02T05:38:12;100147.38;;;13.56;100.00
8320;BME280;4197;42.130;24.746;2023-05-02T05:40:40;100150.88;;;13.96;100.00
8320;BME280;4197;42.130;24.746;2023-05-02T05:43:09;100154.78;;;13.95;100.00
8320;BME280;4197;42.130;24.746;2023-05-02T05:45:37;100152.19;;;13.82;100.00
8320;BME280;4197;42.130;24.746;2023-05-02T05:48:07;100165.91;;;13.86;100.00
8320;BME280;4197;42.130;24.746;2023-05-02T05:50:36;100159.72;;;13.70;100.00
8320;BME280;4197;42.130;24.746;2023-05-02T05:53:05;100162.31;;;13.47;100.00
8320;BME280;4197;42.130;24.746;2023-05-02T05:55:33;100161.94;;;13.64;100.00
8320;BME280;4197;42.130;24.746;2023-05-02T05:58:03;100167.91;;;13.89;100.00
8320;BME280;4197;42.130;24.746;2023-05-02T06:00:33;100167.13;;;13.89;100.00
8320;BME280;4197;42.130;24.746;2023-05-02T06:03:01;100169.19;;;13.76;100.00
8320;BME280;4197;42.130;24.746;2023-05-02T06:05:37;100165.28;;;13.57;100.00
8320;BME280;4197;42.130;24.746;2023-05-02T06:08:05;100167.72;;;13.27;100.00
8320;BME280;4197;42.130;24.746;2023-05-02T06:10:34;100176.34;;;13.29;100.00
8320;BME280;4197;42.130;24.746;2023-05-02T06:13:02;100170.81;;;13.26;100.00
8320;BME280;4197;42.130;24.746;2023-05-02T06:15:32;100168.34;;;13.36;100.00
8320;BME280;4197;42.130;24.746;2023-05-02T06:18:00;100167.44;;;13.32;100.00
8320;BME280;4197;42.130;24.746;2023-05-02T06:20:29;100166.66;;;13.48;100.00
8320;BME280;4197;42.130;24.746;2023-05-02T06:22:58;100169.72;;;13.46;100.00
8320;BME280;4197;42.130;24.746;2023-05-02T06:25:26;100169.44;;;13.51;100.00
8320;BME280;4197;42.130;24.746;2023-05-02T06:27:55;100171.56;;;13.42;100.00
8320;BME280;4197;42.130;24.746;2023-05-02T06:30:23;100166.47;;;13.41;100.00
8320;BME280;4197;42.130;24.746;2023-05-02T06:32:51;100162.75;;;13.49;100.00
8320;BME280;4197;42.130;24.746;2023-05-02T06:35:19;100164.19;;;13.78;100.00
8320;BME280;4197;42.130;24.746;2023-05-02T06:37:48;100158.63;;;14.13;100.00
8320;BME280;4197;42.130;24.746;2023-05-02T06:40:17;100161.19;;;14.45;100.00
8320;BME280;4197;42.130;24.746;2023-05-02T06:42:46;100154.72;;;14.53;100.00
8320;BME280;4197;42.130;24.746;2023-05-02T06:45:14;100149.59;;;14.51;100.00
8320;BME280;4197;42.130;24.746;2023-05-02T06:47:42;100150.22;;;14.41;100.00
8320;BME280;4197;42.130;24.746;2023-05-02T06:50:11;100141.69;;;14.66;100.00
8320;BME280;4197;42.130;24.746;2023-05-02T06:52:40;100147.88;;;14.86;100.00
8320;BME280;4197;42.130;24.746;2023-05-02T06:55:08;100154.81;;;15.06;100.00
8320;BME280;4197;42.130;24.746;2023-05-02T06:57:38;100147.31;;;15.00;100.00
8320;BME280;4197;42.130;24.746;2023-05-02T07:00:08;100159.31;;;14.95;100.00
8320;BME280;4197;42.130;24.746;2023-05-02T07:02:37;100156.91;;;14.90;100.00
8320;BME280;4197;42.130;24.746;2023-05-02T07:05:06;100152.00;;;14.76;100.00
8320;BME280;4197;42.130;24.746;2023-05-02T07:07:34;100150.72;;;14.70;100.00
8320;BME280;4197;42.130;24.746;2023-05-02T07:10:03;100149.97;;;14.96;100.00
8320;BME280;4197;42.130;24.746;2023-05-02T07:12:32;100152.50;;;15.08;100.00
8320;BME280;4197;42.130;24.746;2023-05-02T07:15:01;100156.19;;;15.20;100.00
8320;BME280;4197;42.130;24.746;2023-05-02T07:17:30;100157.44;;;14.99;100.00
8320;BME280;4197;42.130;24.746;2023-05-02T07:19:59;100157.19;;;15.08;100.00
8320;BME280;4197;42.130;24.746;2023-05-02T07:22:28;100153.41;;;15.16;96.87
8320;BME280;4197;42.130;24.746;2023-05-02T07:24:57;100145.16;;;15.39;94.02
8320;BME280;4197;42.130;24.746;2023-05-02T07:27:25;100149.28;;;15.56;88.12
8320;BME280;4197;42.130;24.746;2023-05-02T07:29:54;100154.59;;;15.72;81.31
8320;BME280;4197;42.130;24.746;2023-05-02T07:32:23;100147.34;;;15.56;79.92
8320;BME280;4197;42.130;24.746;2023-05-02T07:34:53;100152.94;;;15.67;75.27
8320;BME280;4197;42.130;24.746;2023-05-02T07:37:22;100142.94;;;15.48;73.43
8320;BME280;4197;42.130;24.746;2023-05-02T07:39:50;100137.56;;;15.55;68.98
8320;BME280;4197;42.130;24.746;2023-05-02T07:42:19;100139.34;;;15.71;66.68
8320;BME280;4197;42.130;24.746;2023-05-02T07:44:47;100139.63;;;15.92;66.95
8320;BME280;4197;42.130;24.746;2023-05-02T07:47:16;100138.66;;;16.11;66.91
8320;BME280;4197;42.130;24.746;2023-05-02T07:49:49;100130.13;;;16.16;66.23
8320;BME280;4197;42.130;24.746;2023-05-02T07:52:19;100134.25;;;15.99;65.48
8320;BME280;4197;42.130;24.746;2023-05-02T07:54:49;100139.03;;;16.10;65.72
8320;BME280;4197;42.130;24.746;2023-05-02T07:57:17;100129.72;;;16.18;63.73
8320;BME280;4197;42.130;24.746;2023-05-02T07:59:46;100119.00;;;16.39;63.03
8320;BME280;4197;42.130;24.746;2023-05-02T08:02:14;100121.63;;;16.28;63.77
8320;BME280;4197;42.130;24.746;2023-05-02T08:04:47;100121.97;;;16.64;59.85
8320;BME280;4197;42.130;24.746;2023-05-02T08:07:15;100117.34;;;16.72;59.23
8320;BME280;4197;42.130;24.746;2023-05-02T08:09:43;100113.28;;;17.03;59.79
8320;BME280;4197;42.130;24.746;2023-05-02T08:12:12;100115.41;;;17.31;56.58
8320;BME280;4197;42.130;24.746;2023-05-02T08:14:40;100111.19;;;17.48;53.28
8320;BME280;4197;42.130;24.746;2023-05-02T08:17:08;100102.59;;;17.57;51.10
8320;BME280;4197;42.130;24.746;2023-05-02T08:19:37;100101.91;;;17.78;49.80
8320;BME280;4197;42.130;24.746;2023-05-02T08:22:07;100112.84;;;17.71;48.66
8320;BME280;4197;42.130;24.746;2023-05-02T08:24:35;100093.69;;;17.78;47.85
8320;BME280;4197;42.130;24.746;2023-05-02T08:27:04;100102.00;;;17.92;47.17
8320;BME280;4197;42.130;24.746;2023-05-02T08:29:33;100094.53;;;17.86;46.16
8320;BME280;4197;42.130;24.746;2023-05-02T08:32:01;100098.03;;;17.79;45.23
8320;BME280;4197;42.130;24.746;2023-05-02T08:34:32;100085.13;;;17.79;43.26
8320;BME280;4197;42.130;24.746;2023-05-02T08:37:08;100083.63;;;18.07;45.94
8320;BME280;4197;42.130;24.746;2023-05-02T08:39:39;100089.94;;;18.47;44.65
8320;BME280;4197;42.130;24.746;2023-05-02T08:42:09;100091.09;;;18.42;43.72
8320;BME280;4197;42.130;24.746;2023-05-02T08:44:40;100091.50;;;18.34;43.44
8320;BME280;4197;42.130;24.746;2023-05-02T08:47:10;100088.34;;;18.39;42.76
8320;BME280;4197;42.130;24.746;2023-05-02T08:49:41;100076.59;;;18.35;43.70
8320;BME280;4197;42.130;24.746;2023-05-02T08:52:12;100078.97;;;18.54;43.11
8320;BME280;4197;42.130;24.746;2023-05-02T08:54:42;100079.34;;;18.63;42.28
8320;BME280;4197;42.130;24.746;2023-05-02T08:57:12;100075.03;;;18.69;42.51
8320;BME280;4197;42.130;24.746;2023-05-02T08:59:41;100066.75;;;18.73;41.01
8320;BME280;4197;42.130;24.746;2023-05-02T09:02:17;100062.06;;;18.66;41.58
8320;BME280;4197;42.130;24.746;2023-05-02T09:04:53;100066.41;;;18.78;42.02
8320;BME280;4197;42.130;24.746;2023-05-02T09:07:23;100062.09;;;18.77;41.51
8320;BME280;4197;42.130;24.746;2023-05-02T09:09:52;100069.53;;;18.69;40.57
8320;BME280;4197;42.130;24.746;2023-05-02T09:12:24;100058.56;;;18.77;39.28
8320;BME280;4197;42.130;24.746;2023-05-02T09:15:11;100056.19;;;18.79;39.55
8320;BME280;4197;42.130;24.746;2023-05-02T09:17:45;100046.00;;;18.83;39.35
8320;BME280;4197;42.130;24.746;2023-05-02T09:20:15;100041.25;;;19.01;37.53
8320;BME280;4197;42.130;24.746;2023-05-02T09:22:49;100040.38;;;19.29;37.94
8320;BME280;4197;42.130;24.746;2023-05-02T09:25:19;100050.19;;;19.23;36.17
8320;BME280;4197;42.130;24.746;2023-05-02T09:27:49;100036.38;;;19.45;37.70
8320;BME280;4197;42.130;24.746;2023-05-02T09:30:19;100044.22;;;19.50;34.50
8320;BME280;4197;42.130;24.746;2023-05-02T09:32:48;100034.03;;;19.47;34.60
8320;BME280;4197;42.130;24.746;2023-05-02T09:35:18;100063.03;;;19.58;35.43
8320;BME280;4197;42.130;24.746;2023-05-02T09:37:54;100028.50;;;19.47;35.31
8320;BME280;4197;42.130;24.746;2023-05-02T09:40:24;100020.66;;;19.49;35.63
8320;BME280;4197;42.130;24.746;2023-05-02T09:42:55;100014.38;;;19.48;36.29
8320;BME280;4197;42.130;24.746;2023-05-02T09:45:24;100014.75;;;19.47;34.27
8320;BME280;4197;42.130;24.746;2023-05-02T09:48:00;100018.34;;;19.40;33.79
8320;BME280;4197;42.130;24.746;2023-05-02T09:50:33;100025.06;;;19.25;33.71
8320;BME280;4197;42.130;24.746;2023-05-02T09:53:04;100015.28;;;19.16;34.82
8320;BME280;4197;42.130;24.746;2023-05-02T09:55:33;100004.28;;;19.24;35.04
8320;BME280;4197;42.130;24.746;2023-05-02T09:58:01;100017.59;;;19.32;34.25
8320;BME280;4197;42.130;24.746;2023-05-02T10:00:43;100007.34;;;19.33;34.02
8320;BME280;4197;42.130;24.746;2023-05-02T10:03:15;99990.75;;;19.54;34.67
8320;BME280;4197;42.130;24.746;2023-05-02T10:05:45;100010.06;;;19.44;34.73
8320;BME280;4197;42.130;24.746;2023-05-02T10:08:17;99997.56;;;19.32;34.19
8320;BME280;4197;42.130;24.746;2023-05-02T10:10:49;99999.81;;;19.51;35.23
8320;BME280;4197;42.130;24.746;2023-05-02T10:13:19;99996.13;;;19.83;34.71
8320;BME280;4197;42.130;24.746;2023-05-02T10:15:53;99992.44;;;20.04;34.63
8320;BME280;4197;42.130;24.746;2023-05-02T10:18:26;100003.28;;;19.66;35.57
8320;BME280;4197;42.130;24.746;2023-05-02T10:20:56;99986.44;;;19.53;33.59
8320;BME280;4197;42.130;24.746;2023-05-02T10:23:28;99987.59;;;19.59;33.48
8320;BME280;4197;42.130;24.746;2023-05-02T10:25:57;99997.78;;;19.66;34.28
8320;BME280;4197;42.130;24.746;2023-05-02T10:28:26;99989.00;;;19.89;33.95
8320;BME280;4197;42.130;24.746;2023-05-02T10:30:56;99984.25;;;19.90;34.01
8320;BME280;4197;42.130;24.746;2023-05-02T10:33:25;99981.78;;;20.06;34.37
8320;BME280;4197;42.130;24.746;2023-05-02T10:35:56;99985.56;;;20.26;34.47
8320;BME280;4197;42.130;24.746;2023-05-02T10:38:24;99992.94;;;20.40;33.64
8320;BME280;4197;42.130;24.746;2023-05-02T10:40:57;99980.06;;;20.23;33.65
8320;BME280;4197;42.130;24.746;2023-05-02T10:43:31;99965.19;;;20.17;34.92
8320;BME280;4197;42.130;24.746;2023-05-02T10:46:01;99972.81;;;20.43;34.30
8320;BME280;4197;42.130;24.746;2023-05-02T10:48:30;99968.97;;;20.75;34.59
8320;BME280;4197;42.130;24.746;2023-05-02T10:50:59;99985.22;;;20.66;32.94
8320;BME280;4197;42.130;24.746;2023-05-02T10:53:29;99967.50;;;20.22;32.99
8320;BME280;4197;42.130;24.746;2023-05-02T10:56:11;99972.88;;;20.40;32.80
8320;BME280;4197;42.130;24.746;2023-05-02T10:58:39;99984.75;;;20.30;33.02
8320;BME280;4197;42.130;24.746;2023-05-02T11:01:36;99969.50;;;20.18;32.78
8320;BME280;4197;42.130;24.746;2023-05-02T11:04:06;99962.13;;;20.08;33.45
8320;BME280;4197;42.130;24.746;2023-05-02T11:06:36;99957.38;;;20.08;32.58
8320;BME280;4197;42.130;24.746;2023-05-02T11:09:30;99957.25;;;20.22;33.47
8320;BME280;4197;42.130;24.746;2023-05-02T11:12:01;99958.97;;;20.54;32.28
8320;BME280;4197;42.130;24.746;2023-05-02T11:14:46;99966.47;;;20.54;32.66
8320;BME280;4197;42.130;24.746;2023-05-02T11:17:16;99960.75;;;20.71;32.33
8320;BME280;4197;42.130;24.746;2023-05-02T11:23:18;99947.84;;;20.99;31.22
8320;BME280;4197;42.130;24.746;2023-05-02T11:25:49;99950.00;;;20.81;31.48
8320;BME280;4197;42.130;24.746;2023-05-02T11:28:41;99950.28;;;20.56;31.97
8320;BME280;4197;42.130;24.746;2023-05-02T11:34:24;99954.56;;;20.60;31.85
8320;BME280;4197;42.130;24.746;2023-05-02T11:36:52;99945.75;;;20.76;31.78
8320;BME280;4197;42.130;24.746;2023-05-02T11:39:20;99941.63;;;20.91;32.40
8320;BME280;4197;42.130;24.746;2023-05-02T11:41:49;99945.47;;;20.98;31.24
8320;BME280;4197;42.130;24.746;2023-05-02T11:44:19;99930.59;;;20.91;31.90
8320;BME280;4197;42.130;24.746;2023-05-02T11:46:47;99923.69;;;21.10;31.52
8320;BME280;4197;42.130;24.746;2023-05-02T11:49:16;99926.69;;;21.20;31.47
8320;BME280;4197;42.130;24.746;2023-05-02T11:51:44;99926.44;;;21.10;30.56
8320;BME280;4197;42.130;24.746;2023-05-02T11:54:17;99917.75;;;21.12;31.82
8320;BME280;4197;42.130;24.746;2023-05-02T11:56:46;99901.53;;;21.45;31.68
8320;BME280;4197;42.130;24.746;2023-05-02T11:59:15;99916.47;;;21.51;30.88
8320;BME280;4197;42.130;24.746;2023-05-02T12:01:48;99915.03;;;21.39;31.90
8320;BME280;4197;42.130;24.746;2023-05-02T12:04:16;99915.00;;;21.43;31.96
8320;BME280;4197;42.130;24.746;2023-05-02T12:06:55;99883.91;;;21.66;31.80
8320;BME280;4197;42.130;24.746;2023-05-02T12:09:24;99894.03;;;21.72;31.54
8320;BME280;4197;42.130;24.746;2023-05-02T12:11:53;99898.53;;;21.63;31.29
8320;BME280;4197;42.130;24.746;2023-05-02T12:14:28;99897.72;;;21.08;31.46
8320;BME280;4197;42.130;24.746;2023-05-02T12:16:58;99883.84;;;21.15;32.04
8320;BME280;4197;42.130;24.746;2023-05-02T12:19:27;99893.19;;;21.21;32.34
8320;BME280;4197;42.130;24.746;2023-05-02T12:21:56;99879.66;;;21.30;31.67
8320;BME280;4197;42.130;24.746;2023-05-02T12:24:24;99876.88;;;21.34;31.19
8320;BME280;4197;42.130;24.746;2023-05-02T12:27:08;99864.53;;;21.15;30.90
8320;BME280;4197;42.130;24.746;2023-05-02T12:29:38;99863.78;;;21.11;31.35
8320;BME280;4197;42.130;24.746;2023-05-02T12:32:07;99853.06;;;21.16;31.27
8320;BME280;4197;42.130;24.746;2023-05-02T12:34:36;99874.88;;;21.07;31.14
8320;BME280;4197;42.130;24.746;2023-05-02T12:37:06;99853.44;;;21.19;31.46
8320;BME280;4197;42.130;24.746;2023-05-02T12:39:35;99851.25;;;21.37;30.65
8320;BME280;4197;42.130;24.746;2023-05-02T12:42:09;99847.53;;;21.20;30.82
8320;BME280;4197;42.130;24.746;2023-05-02T12:44:39;99836.13;;;21.18;31.33
8320;BME280;4197;42.130;24.746;2023-05-02T12:47:10;99829.78;;;21.48;30.67
8320;BME280;4197;42.130;24.746;2023-05-02T12:49:48;99829.59;;;21.59;30.37
8320;BME280;4197;42.130;24.746;2023-05-02T12:52:17;99821.75;;;21.30;30.49
8320;BME280;4197;42.130;24.746;2023-05-02T12:54:46;99828.63;;;21.19;30.75
8320;BME280;4197;42.130;24.746;2023-05-02T12:57:24;99811.38;;;21.14;30.98
8320;BME280;4197;42.130;24.746;2023-05-02T12:59:53;99827.47;;;21.16;31.15
8320;BME280;4197;42.130;24.746;2023-05-02T13:02:22;99828.22;;;21.20;31.08
8320;BME280;4197;42.130;24.746;2023-05-02T13:04:51;99821.22;;;21.39;30.92
8320;BME280;4197;42.130;24.746;2023-05-02T13:07:19;99814.31;;;21.54;31.18
8320;BME280;4197;42.130;24.746;2023-05-02T13:09:48;99810.22;;;21.63;30.60
8320;BME280;4197;42.130;24.746;2023-05-02T13:12:16;99803.09;;;21.65;30.39
8320;BME280;4197;42.130;24.746;2023-05-02T13:14:44;99808.13;;;21.70;30.52
8320;BME280;4197;42.130;24.746;2023-05-02T13:17:12;99808.66;;;21.85;30.81
8320;BME280;4197;42.130;24.746;2023-05-02T13:19:42;99808.25;;;21.63;30.12
8320;BME280;4197;42.130;24.746;2023-05-02T13:22:27;99807.28;;;21.73;30.41
8320;BME280;4197;42.130;24.746;2023-05-02T13:24:55;99800.44;;;21.58;30.09
8320;BME280;4197;42.130;24.746;2023-05-02T13:27:24;99800.31;;;21.65;30.75